sensor_id;sensor_type;location;lat;lon;timestamp;P1;durP1;ratioP1;P2;durP2;ratioP2
52918;SDS011;38793;52.690;6.812;2023-08-06T00:02:23;8.30;;;7.50;;
52918;SDS011;38793;52.690;6.812;2023-08-06T00:04:48;9.30;;;7.75;;
52918;SDS011;38793;52.690;6.812;2023-08-06T00:07:14;12.07;;;8.00;;
52918;SDS011;38793;52.690;6.812;2023-08-06T00:09:39;8.30;;;7.47;;
52918;SDS011;38793;52.690;6.812;2023-08-06T00:12:05;12.38;;;7.88;;
52918;SDS011;38793;52.690;6.812;2023-08-06T00:14:31;10.80;;;8.43;;
52918;SDS011;38793;52.690;6.812;2023-08-06T00:16:56;12.63;;;8.82;;
52918;SDS011;38793;52.690;6.812;2023-08-06T00:19:22;10.82;;;9.65;;
52918;SDS011;38793;52.690;6.812;2023-08-06T00:21:47;13.20;;;8.68;;
52918;SDS011;38793;52.690;6.812;2023-08-06T00:24:13;10.48;;;8.57;;
52918;SDS011;38793;52.690;6.812;2023-08-06T00:26:39;10.13;;;9.10;;
52918;SDS011;38793;52.690;6.812;2023-08-06T00:29:05;11.05;;;9.35;;
52918;SDS011;38793;52.690;6.812;2023-08-06T00:31:30;12.63;;;8.40;;
52918;SDS011;38793;52.690;6.812;2023-08-06T00:33:56;15.57;;;9.65;;
52918;SDS011;38793;52.690;6.812;2023-08-06T00:36:21;11.65;;;8.77;;
52918;SDS011;38793;52.690;6.812;2023-08-06T00:38:47;10.43;;;8.38;;
52918;SDS011;38793;52.690;6.812;2023-08-06T00:41:12;11.50;;;7.97;;
52918;SDS011;38793;52.690;6.812;2023-08-06T00:43:38;8.35;;;7.40;;
52918;SDS011;38793;52.690;6.812;2023-08-06T00:46:04;13.45;;;7.97;;
52918;SDS011;38793;52.690;6.812;2023-08-06T00:48:30;8.75;;;7.85;;
52918;SDS011;38793;52.690;6.812;2023-08-06T00:53:22;9.02;;;7.95;;
52918;SDS011;38793;52.690;6.812;2023-08-06T00:55:47;11.60;;;9.10;;
52918;SDS011;38793;52.690;6.812;2023-08-06T01:00:40;9.25;;;8.43;;
52918;SDS011;38793;52.690;6.812;2023-08-06T01:03:06;9.52;;;8.25;;
52918;SDS011;38793;52.690;6.812;2023-08-06T01:05:31;11.07;;;7.90;;
52918;SDS011;38793;52.690;6.812;2023-08-06T01:13:41;9.93;;;8.90;;
52918;SDS011;38793;52.690;6.812;2023-08-06T01:16:14;10.38;;;8.57;;
52918;SDS011;38793;52.690;6.812;2023-08-06T01:18:41;13.15;;;7.93;;
52918;SDS011;38793;52.690;6.812;2023-08-06T01:21:08;12.63;;;8.57;;
52918;SDS011;38793;52.690;6.812;2023-08-06T01:23:34;10.77;;;7.97;;
52918;SDS011;38793;52.690;6.812;2023-08-06T01:31:38;10.13;;;8.98;;
52918;SDS011;38793;52.690;6.812;2023-08-06T01:36:31;12.13;;;8.82;;
52918;SDS011;38793;52.690;6.812;2023-08-06T01:38:57;9.95;;;8.95;;
52918;SDS011;38793;52.690;6.812;2023-08-06T01:41:23;10.18;;;8.05;;
52918;SDS011;38793;52.690;6.812;2023-08-06T01:43:48;9.60;;;8.43;;
52918;SDS011;38793;52.690;6.812;2023-08-06T01:46:14;13.90;;;8.20;;
52918;SDS011;38793;52.690;6.812;2023-08-06T01:48:39;10.38;;;7.50;;
52918;SDS011;38793;52.690;6.812;2023-08-06T01:51:05;10.35;;;8.35;;
52918;SDS011;38793;52.690;6.812;2023-08-06T01:53:31;9.23;;;8.13;;
52918;SDS011;38793;52.690;6.812;2023-08-06T01:55:57;10.23;;;7.50;;
52918;SDS011;38793;52.690;6.812;2023-08-06T01:58:23;11.63;;;7.88;;
52918;SDS011;38793;52.690;6.812;2023-08-06T02:00:48;9.30;;;7.60;;
52918;SDS011;38793;52.690;6.812;2023-08-06T02:03:14;9.10;;;8.20;;
52918;SDS011;38793;52.690;6.812;2023-08-06T02:05:40;11.15;;;8.15;;
52918;SDS011;38793;52.690;6.812;2023-08-06T02:08:06;9.50;;;8.57;;
52918;SDS011;38793;52.690;6.812;2023-08-06T02:10:31;10.77;;;7.65;;
52918;SDS011;38793;52.690;6.812;2023-08-06T02:12:57;12.65;;;8.20;;
52918;SDS011;38793;52.690;6.812;2023-08-06T02:15:23;10.75;;;8.25;;
52918;SDS011;38793;52.690;6.812;2023-08-06T02:17:48;10.82;;;8.43;;
52918;SDS011;38793;52.690;6.812;2023-08-06T02:20:14;12.63;;;8.50;;
52918;SDS011;38793;52.690;6.812;2023-08-06T02:22:42;9.23;;;8.38;;
52918;SDS011;38793;52.690;6.812;2023-08-06T02:25:08;11.45;;;7.75;;
52918;SDS011;38793;52.690;6.812;2023-08-06T02:27:33;9.63;;;8.63;;
52918;SDS011;38793;52.690;6.812;2023-08-06T02:29:59;9.25;;;8.43;;
52918;SDS011;38793;52.690;6.812;2023-08-06T02:32:25;16.85;;;9.15;;
52918;SDS011;38793;52.690;6.812;2023-08-06T02:34:50;9.82;;;8.45;;
52918;SDS011;38793;52.690;6.812;2023-08-06T02:37:16;15.32;;;10.45;;
52918;SDS011;38793;52.690;6.812;2023-08-06T02:39:41;10.40;;;9.38;;
52918;SDS011;38793;52.690;6.812;2023-08-06T02:44:33;10.27;;;8.77;;
52918;SDS011;38793;52.690;6.812;2023-08-06T02:49:25;10.57;;;8.88;;
52918;SDS011;38793;52.690;6.812;2023-08-06T02:51:51;8.98;;;8.18;;
52918;SDS011;38793;52.690;6.812;2023-08-06T02:54:17;10.57;;;9.32;;
52918;SDS011;38793;52.690;6.812;2023-08-06T02:56:43;10.05;;;8.20;;
52918;SDS011;38793;52.690;6.812;2023-08-06T02:59:10;9.98;;;9.02;;
52918;SDS011;38793;52.690;6.812;2023-08-06T03:01:36;14.73;;;9.45;;
52918;SDS011;38793;52.690;6.812;2023-08-06T03:04:02;14.57;;;8.45;;
52918;SDS011;38793;52.690;6.812;2023-08-06T03:06:28;11.57;;;8.93;;
52918;SDS011;38793;52.690;6.812;2023-08-06T03:08:53;10.05;;;9.07;;
52918;SDS011;38793;52.690;6.812;2023-08-06T03:11:19;11.23;;;9.13;;
52918;SDS011;38793;52.690;6.812;2023-08-06T03:13:45;10.43;;;9.32;;
52918;SDS011;38793;52.690;6.812;2023-08-06T03:16:11;11.63;;;9.60;;
52918;SDS011;38793;52.690;6.812;2023-08-06T03:18:37;10.38;;;9.30;;
52918;SDS011;38793;52.690;6.812;2023-08-06T03:21:03;13.60;;;9.13;;
52918;SDS011;38793;52.690;6.812;2023-08-06T03:23:28;12.68;;;9.90;;
52918;SDS011;38793;52.690;6.812;2023-08-06T03:25:54;14.32;;;10.35;;
52918;SDS011;38793;52.690;6.812;2023-08-06T03:28:19;14.65;;;9.52;;
52918;SDS011;38793;52.690;6.812;2023-08-06T03:30:45;10.45;;;9.25;;
52918;SDS011;38793;52.690;6.812;2023-08-06T03:33:10;13.93;;;10.02;;
52918;SDS011;38793;52.690;6.812;2023-08-06T03:35:36;12.02;;;9.93;;
52918;SDS011;38793;52.690;6.812;2023-08-06T03:38:02;12.82;;;9.60;;
52918;SDS011;38793;52.690;6.812;2023-08-06T03:40:27;12.90;;;10.32;;
52918;SDS011;38793;52.690;6.812;2023-08-06T03:42:53;12.30;;;9.55;;
52918;SDS011;38793;52.690;6.812;2023-08-06T03:45:18;11.65;;;10.50;;
52918;SDS011;38793;52.690;6.812;2023-08-06T03:47:44;11.32;;;10.15;;
52918;SDS011;38793;52.690;6.812;2023-08-06T03:50:09;12.18;;;9.45;;
52918;SDS011;38793;52.690;6.812;2023-08-06T03:52:35;12.57;;;9.95;;
52918;SDS011;38793;52.690;6.812;2023-08-06T03:55:01;10.75;;;9.75;;
52918;SDS011;38793;52.690;6.812;2023-08-06T03:57:26;11.75;;;9.95;;
52918;SDS011;38793;52.690;6.812;2023-08-06T03:59:52;11.57;;;10.38;;
52918;SDS011;38793;52.690;6.812;2023-08-06T04:02:17;11.70;;;10.50;;
52918;SDS011;38793;52.690;6.812;2023-08-06T04:04:43;12.13;;;9.73;;
52918;SDS011;38793;52.690;6.812;2023-08-06T04:07:09;12.02;;;10.82;;
52918;SDS011;38793;52.690;6.812;2023-08-06T04:09:35;16.05;;;10.57;;
52918;SDS011;38793;52.690;6.812;2023-08-06T04:12:19;13.75;;;11.13;;
52918;SDS011;38793;52.690;6.812;2023-08-06T04:14:45;10.15;;;9.23;;
52918;SDS011;38793;52.690;6.812;2023-08-06T04:17:11;12.77;;;10.15;;
52918;SDS011;38793;52.690;6.812;2023-08-06T04:19:36;12.32;;;10.55;;
52918;SDS011;38793;52.690;6.812;2023-08-06T04:22:02;10.93;;;9.88;;
52918;SDS011;38793;52.690;6.812;2023-08-06T04:24:27;14.10;;;10.13;;
52918;SDS011;38793;52.690;6.812;2023-08-06T04:26:53;10.95;;;9.70;;
52918;SDS011;38793;52.690;6.812;2023-08-06T04:29:19;10.85;;;9.75;;
52918;SDS011;38793;52.690;6.812;2023-08-06T04:31:44;11.68;;;9.57;;
52918;SDS011;38793;52.690;6.812;2023-08-06T04:34:10;13.20;;;10.73;;
52918;SDS011;38793;52.690;6.812;2023-08-06T04:36:35;13.85;;;9.55;;
52918;SDS011;38793;52.690;6.812;2023-08-06T04:39:01;11.77;;;10.68;;
52918;SDS011;38793;52.690;6.812;2023-08-06T04:41:26;12.15;;;10.88;;
52918;SDS011;38793;52.690;6.812;2023-08-06T04:43:52;12.55;;;11.27;;
52918;SDS011;38793;52.690;6.812;2023-08-06T04:46:17;12.27;;;10.48;;
52918;SDS011;38793;52.690;6.812;2023-08-06T04:48:43;11.73;;;10.73;;
52918;SDS011;38793;52.690;6.812;2023-08-06T04:51:09;13.68;;;10.85;;
52918;SDS011;38793;52.690;6.812;2023-08-06T04:53:34;12.02;;;10.75;;
52918;SDS011;38793;52.690;6.812;2023-08-06T04:56:00;12.23;;;11.13;;
52918;SDS011;38793;52.690;6.812;2023-08-06T04:58:25;13.18;;;11.27;;
52918;SDS011;38793;52.690;6.812;2023-08-06T05:00:51;12.85;;;11.57;;
52918;SDS011;38793;52.690;6.812;2023-08-06T05:03:18;13.60;;;11.10;;
52918;SDS011;38793;52.690;6.812;2023-08-06T05:05:45;13.98;;;12.23;;
52918;SDS011;38793;52.690;6.812;2023-08-06T05:08:14;14.05;;;11.15;;
52918;SDS011;38793;52.690;6.812;2023-08-06T05:10:44;13.15;;;11.85;;
52918;SDS011;38793;52.690;6.812;2023-08-06T05:13:09;13.98;;;11.25;;
52918;SDS011;38793;52.690;6.812;2023-08-06T05:15:35;12.82;;;11.40;;
52918;SDS011;38793;52.690;6.812;2023-08-06T05:18:00;12.93;;;11.63;;
52918;SDS011;38793;52.690;6.812;2023-08-06T05:20:26;12.00;;;10.90;;
52918;SDS011;38793;52.690;6.812;2023-08-06T05:22:52;12.77;;;11.48;;
52918;SDS011;38793;52.690;6.812;2023-08-06T05:25:17;12.57;;;11.05;;
52918;SDS011;38793;52.690;6.812;2023-08-06T05:27:43;15.00;;;11.10;;
52918;SDS011;38793;52.690;6.812;2023-08-06T05:30:08;14.50;;;11.57;;
52918;SDS011;38793;52.690;6.812;2023-08-06T05:32:35;12.05;;;10.95;;
52918;SDS011;38793;52.690;6.812;2023-08-06T05:35:00;13.52;;;11.93;;
52918;SDS011;38793;52.690;6.812;2023-08-06T05:37:26;16.70;;;11.68;;
52918;SDS011;38793;52.690;6.812;2023-08-06T05:39:52;12.73;;;11.43;;
52918;SDS011;38793;52.690;6.812;2023-08-06T05:42:17;13.55;;;12.15;;
52918;SDS011;38793;52.690;6.812;2023-08-06T05:44:43;17.35;;;14.00;;
52918;SDS011;38793;52.690;6.812;2023-08-06T05:47:08;18.33;;;15.77;;
52918;SDS011;38793;52.690;6.812;2023-08-06T05:49:34;19.20;;;17.05;;
52918;SDS011;38793;52.690;6.812;2023-08-06T05:51:59;23.17;;;19.05;;
52918;SDS011;38793;52.690;6.812;2023-08-06T05:54:25;20.58;;;18.48;;
52918;SDS011;38793;52.690;6.812;2023-08-06T05:56:51;20.23;;;18.08;;
52918;SDS011;38793;52.690;6.812;2023-08-06T05:59:16;23.52;;;20.42;;
52918;SDS011;38793;52.690;6.812;2023-08-06T06:01:42;23.75;;;20.23;;
52918;SDS011;38793;52.690;6.812;2023-08-06T06:04:07;21.50;;;19.20;;
52918;SDS011;38793;52.690;6.812;2023-08-06T06:06:33;23.60;;;18.85;;
52918;SDS011;38793;52.690;6.812;2023-08-06T06:08:58;23.90;;;19.42;;
52918;SDS011;38793;52.690;6.812;2023-08-06T06:11:24;23.63;;;19.83;;
52918;SDS011;38793;52.690;6.812;2023-08-06T06:13:50;20.63;;;18.52;;
52918;SDS011;38793;52.690;6.812;2023-08-06T06:16:16;22.58;;;20.08;;
52918;SDS011;38793;52.690;6.812;2023-08-06T06:18:41;20.45;;;18.30;;
52918;SDS011;38793;52.690;6.812;2023-08-06T06:21:07;19.65;;;17.55;;
52918;SDS011;38793;52.690;6.812;2023-08-06T06:23:33;19.63;;;17.63;;
52918;SDS011;38793;52.690;6.812;2023-08-06T06:25:59;23.42;;;18.45;;
52918;SDS011;38793;52.690;6.812;2023-08-06T06:28:25;18.10;;;15.00;;
52918;SDS011;38793;52.690;6.812;2023-08-06T06:30:51;21.42;;;17.75;;
52918;SDS011;38793;52.690;6.812;2023-08-06T06:35:42;20.73;;;18.05;;
52918;SDS011;38793;52.690;6.812;2023-08-06T06:38:08;21.00;;;18.35;;
52918;SDS011;38793;52.690;6.812;2023-08-06T06:40:33;22.17;;;17.80;;
52918;SDS011;38793;52.690;6.812;2023-08-06T06:42:59;23.50;;;18.25;;
52918;SDS011;38793;52.690;6.812;2023-08-06T06:45:24;19.92;;;17.20;;
52918;SDS011;38793;52.690;6.812;2023-08-06T06:47:50;20.35;;;18.25;;
52918;SDS011;38793;52.690;6.812;2023-08-06T06:50:16;26.98;;;19.70;;
52918;SDS011;38793;52.690;6.812;2023-08-06T06:52:41;22.60;;;20.27;;
52918;SDS011;38793;52.690;6.812;2023-08-06T06:55:10;22.65;;;19.48;;
52918;SDS011;38793;52.690;6.812;2023-08-06T06:57:35;22.92;;;20.58;;
52918;SDS011;38793;52.690;6.812;2023-08-06T07:00:01;22.30;;;20.20;;
52918;SDS011;38793;52.690;6.812;2023-08-06T07:02:27;22.02;;;19.75;;
52918;SDS011;38793;52.690;6.812;2023-08-06T07:04:52;21.50;;;19.38;;
52918;SDS011;38793;52.690;6.812;2023-08-06T07:07:18;21.70;;;19.38;;
52918;SDS011;38793;52.690;6.812;2023-08-06T07:09:44;22.95;;;19.23;;
52918;SDS011;38793;52.690;6.812;2023-08-06T07:12:10;21.92;;;19.83;;
52918;SDS011;38793;52.690;6.812;2023-08-06T07:14:35;18.83;;;17.08;;
52918;SDS011;38793;52.690;6.812;2023-08-06T07:17:01;20.77;;;18.65;;
52918;SDS011;38793;52.690;6.812;2023-08-06T07:19:26;16.58;;;14.93;;
52918;SDS011;38793;52.690;6.812;2023-08-06T07:21:52;19.75;;;17.52;;
52918;SDS011;38793;52.690;6.812;2023-08-06T07:24:17;19.35;;;17.35;;
52918;SDS011;38793;52.690;6.812;2023-08-06T07:26:43;18.63;;;16.25;;
52918;SDS011;38793;52.690;6.812;2023-08-06T07:29:09;16.40;;;14.90;;
52918;SDS011;38793;52.690;6.812;2023-08-06T07:31:34;16.20;;;14.65;;
52918;SDS011;38793;52.690;6.812;2023-08-06T07:34:00;16.60;;;14.20;;
52918;SDS011;38793;52.690;6.812;2023-08-06T07:36:25;15.55;;;14.15;;
52918;SDS011;38793;52.690;6.812;2023-08-06T07:38:51;16.15;;;14.75;;
52918;SDS011;38793;52.690;6.812;2023-08-06T07:41:21;17.13;;;15.30;;
52918;SDS011;38793;52.690;6.812;2023-08-06T07:43:47;16.05;;;14.43;;
52918;SDS011;38793;52.690;6.812;2023-08-06T07:46:13;16.23;;;14.73;;
52918;SDS011;38793;52.690;6.812;2023-08-06T07:48:38;15.50;;;14.00;;
52918;SDS011;38793;52.690;6.812;2023-08-06T07:51:04;15.30;;;13.80;;
52918;SDS011;38793;52.690;6.812;2023-08-06T07:53:29;15.63;;;13.98;;
52918;SDS011;38793;52.690;6.812;2023-08-06T07:55:56;17.98;;;16.10;;
52918;SDS011;38793;52.690;6.812;2023-08-06T08:00:48;15.88;;;14.25;;
52918;SDS011;38793;52.690;6.812;2023-08-06T08:03:14;19.05;;;14.38;;
52918;SDS011;38793;52.690;6.812;2023-08-06T08:05:41;15.20;;;13.57;;
52918;SDS011;38793;52.690;6.812;2023-08-06T08:08:07;12.85;;;11.75;;
52918;SDS011;38793;52.690;6.812;2023-08-06T08:10:33;13.68;;;12.35;;
52918;SDS011;38793;52.690;6.812;2023-08-06T08:13:00;71.35;;;15.82;;
52918;SDS011;38793;52.690;6.812;2023-08-06T08:15:27;12.40;;;11.30;;
52918;SDS011;38793;52.690;6.812;2023-08-06T08:17:54;10.80;;;9.88;;
52918;SDS011;38793;52.690;6.812;2023-08-06T08:20:20;12.77;;;11.15;;
52918;SDS011;38793;52.690;6.812;2023-08-06T08:22:45;11.75;;;10.65;;
52918;SDS011;38793;52.690;6.812;2023-08-06T08:25:11;11.02;;;10.18;;
52918;SDS011;38793;52.690;6.812;2023-08-06T08:27:36;13.30;;;12.00;;
52918;SDS011;38793;52.690;6.812;2023-08-06T08:30:02;11.50;;;10.50;;
52918;SDS011;38793;52.690;6.812;2023-08-06T08:32:28;10.85;;;9.63;;
52918;SDS011;38793;52.690;6.812;2023-08-06T08:34:53;11.48;;;10.27;;
52918;SDS011;38793;52.690;6.812;2023-08-06T08:37:19;11.43;;;10.32;;
52918;SDS011;38793;52.690;6.812;2023-08-06T08:39:45;11.07;;;9.95;;
52918;SDS011;38793;52.690;6.812;2023-08-06T08:42:10;12.07;;;10.70;;
52918;SDS011;38793;52.690;6.812;2023-08-06T08:44:36;10.82;;;9.82;;
52918;SDS011;38793;52.690;6.812;2023-08-06T08:47:07;11.07;;;10.05;;
52918;SDS011;38793;52.690;6.812;2023-08-06T08:49:36;10.63;;;9.52;;
52918;SDS011;38793;52.690;6.812;2023-08-06T08:52:02;10.93;;;9.85;;
52918;SDS011;38793;52.690;6.812;2023-08-06T08:54:32;14.07;;;10.32;;
52918;SDS011;38793;52.690;6.812;2023-08-06T08:56:59;9.95;;;9.05;;
52918;SDS011;38793;52.690;6.812;2023-08-06T08:59:25;12.35;;;9.48;;
52918;SDS011;38793;52.690;6.812;2023-08-06T09:01:51;10.75;;;9.85;;
52918;SDS011;38793;52.690;6.812;2023-08-06T09:04:18;11.32;;;9.77;;
52918;SDS011;38793;52.690;6.812;2023-08-06T09:06:46;9.43;;;8.63;;
52918;SDS011;38793;52.690;6.812;2023-08-06T09:09:22;9.43;;;8.57;;
52918;SDS011;38793;52.690;6.812;2023-08-06T09:12:05;9.50;;;8.70;;
52918;SDS011;38793;52.690;6.812;2023-08-06T09:14:36;12.20;;;8.15;;
52918;SDS011;38793;52.690;6.812;2023-08-06T09:17:01;9.07;;;8.38;;
52918;SDS011;38793;52.690;6.812;2023-08-06T09:19:29;9.10;;;8.30;;
52918;SDS011;38793;52.690;6.812;2023-08-06T09:21:55;8.57;;;7.75;;
52918;SDS011;38793;52.690;6.812;2023-08-06T09:26:47;8.27;;;7.43;;
52918;SDS011;38793;52.690;6.812;2023-08-06T09:29:12;8.00;;;7.30;;
52918;SDS011;38793;52.690;6.812;2023-08-06T09:34:20;8.68;;;7.80;;
52918;SDS011;38793;52.690;6.812;2023-08-06T09:36:50;7.80;;;7.07;;
52918;SDS011;38793;52.690;6.812;2023-08-06T09:39:18;7.57;;;7.07;;
52918;SDS011;38793;52.690;6.812;2023-08-06T09:41:45;8.00;;;6.05;;
52918;SDS011;38793;52.690;6.812;2023-08-06T09:44:16;7.22;;;6.63;;
52918;SDS011;38793;52.690;6.812;2023-08-06T09:46:53;7.05;;;6.28;;
52918;SDS011;38793;52.690;6.812;2023-08-06T09:49:39;5.90;;;5.40;;
52918;SDS011;38793;52.690;6.812;2023-08-06T09:52:09;6.78;;;4.70;;
52918;SDS011;38793;52.690;6.812;2023-08-06T09:54:40;5.47;;;5.07;;
52918;SDS011;38793;52.690;6.812;2023-08-06T09:57:06;6.22;;;5.65;;
52918;SDS011;38793;52.690;6.812;2023-08-06T09:59:33;6.10;;;5.68;;
52918;SDS011;38793;52.690;6.812;2023-08-06T10:02:00;5.85;;;4.82;;
52918;SDS011;38793;52.690;6.812;2023-08-06T10:04:27;6.10;;;5.50;;
52918;SDS011;38793;52.690;6.812;2023-08-06T10:06:54;5.97;;;4.97;;
52918;SDS011;38793;52.690;6.812;2023-08-06T10:09:20;5.15;;;4.75;;
52918;SDS011;38793;52.690;6.812;2023-08-06T10:14:16;5.88;;;5.38;;
52918;SDS011;38793;52.690;6.812;2023-08-06T10:16:46;5.90;;;5.40;;
52918;SDS011;38793;52.690;6.812;2023-08-06T10:19:12;5.07;;;4.78;;
52918;SDS011;38793;52.690;6.812;2023-08-06T10:21:40;5.10;;;4.80;;
52918;SDS011;38793;52.690;6.812;2023-08-06T10:24:14;5.80;;;5.38;;
52918;SDS011;38793;52.690;6.812;2023-08-06T10:26:39;5.07;;;4.68;;
52918;SDS011;38793;52.690;6.812;2023-08-06T10:29:34;5.70;;;3.60;;
52918;SDS011;38793;52.690;6.812;2023-08-06T10:32:01;3.63;;;3.40;;
52918;SDS011;38793;52.690;6.812;2023-08-06T10:37:11;4.30;;;3.65;;
52918;SDS011;38793;52.690;6.812;2023-08-06T10:39:47;4.05;;;3.58;;
52918;SDS011;38793;52.690;6.812;2023-08-06T10:42:27;4.05;;;3.35;;
52918;SDS011;38793;52.690;6.812;2023-08-06T10:47:42;3.20;;;2.90;;
52918;SDS011;38793;52.690;6.812;2023-08-06T10:50:11;4.97;;;4.00;;
52918;SDS011;38793;52.690;6.812;2023-08-06T10:52:38;8.93;;;3.53;;
52918;SDS011;38793;52.690;6.812;2023-08-06T10:57:30;2.85;;;2.50;;
52918;SDS011;38793;52.690;6.812;2023-08-06T11:02:21;3.55;;;2.08;;
52918;SDS011;38793;52.690;6.812;2023-08-06T11:07:13;3.80;;;2.70;;
52918;SDS011;38793;52.690;6.812;2023-08-06T11:12:09;3.13;;;1.85;;
52918;SDS011;38793;52.690;6.812;2023-08-06T11:14:35;3.47;;;2.13;;
52918;SDS011;38793;52.690;6.812;2023-08-06T11:19:26;1.98;;;1.20;;
52918;SDS011;38793;52.690;6.812;2023-08-06T11:21:52;3.17;;;1.60;;
52918;SDS011;38793;52.690;6.812;2023-08-06T11:26:43;4.78;;;2.03;;
52918;SDS011;38793;52.690;6.812;2023-08-06T11:29:09;2.53;;;1.48;;
52918;SDS011;38793;52.690;6.812;2023-08-06T11:31:35;2.65;;;2.10;;
52918;SDS011;38793;52.690;6.812;2023-08-06T11:36:33;2.38;;;2.17;;
52918;SDS011;38793;52.690;6.812;2023-08-06T11:39:01;2.85;;;1.90;;
52918;SDS011;38793;52.690;6.812;2023-08-06T11:41:30;3.05;;;1.88;;
52918;SDS011;38793;52.690;6.812;2023-08-06T11:46:21;1.98;;;1.77;;
52918;SDS011;38793;52.690;6.812;2023-08-06T11:48:54;4.90;;;1.08;;
52918;SDS011;38793;52.690;6.812;2023-08-06T11:51:24;2.75;;;1.17;;
52918;SDS011;38793;52.690;6.812;2023-08-06T11:53:56;1.60;;;1.25;;
52918;SDS011;38793;52.690;6.812;2023-08-06T11:56:22;1.92;;;1.10;;
52918;SDS011;38793;52.690;6.812;2023-08-06T11:58:48;2.70;;;1.30;;
52918;SDS011;38793;52.690;6.812;2023-08-06T12:01:14;2.83;;;1.13;;
52918;SDS011;38793;52.690;6.812;2023-08-06T12:03:40;2.75;;;1.42;;
52918;SDS011;38793;52.690;6.812;2023-08-06T12:06:06;1.95;;;0.90;;
52918;SDS011;38793;52.690;6.812;2023-08-06T12:08:35;1.27;;;0.93;;
52918;SDS011;38793;52.690;6.812;2023-08-06T12:11:03;2.25;;;1.08;;
52918;SDS011;38793;52.690;6.812;2023-08-06T12:13:28;1.55;;;0.90;;
52918;SDS011;38793;52.690;6.812;2023-08-06T12:15:54;1.92;;;1.00;;
52918;SDS011;38793;52.690;6.812;2023-08-06T12:18:22;2.33;;;1.52;;
52918;SDS011;38793;52.690;6.812;2023-08-06T12:20:48;2.53;;;1.05;;
52918;SDS011;38793;52.690;6.812;2023-08-06T12:23:13;1.27;;;0.90;;
52918;SDS011;38793;52.690;6.812;2023-08-06T12:25:40;4.15;;;1.27;;
52918;SDS011;38793;52.690;6.812;2023-08-06T12:28:06;4.40;;;1.33;;
52918;SDS011;38793;52.690;6.812;2023-08-06T12:30:33;2.80;;;1.38;;
52918;SDS011;38793;52.690;6.812;2023-08-06T12:35:24;2.63;;;2.30;;
52918;SDS011;38793;52.690;6.812;2023-08-06T12:37:50;2.25;;;1.45;;
52918;SDS011;38793;52.690;6.812;2023-08-06T12:40:19;1.67;;;1.42;;
52918;SDS011;38793;52.690;6.812;2023-08-06T12:42:45;2.65;;;0.85;;
52918;SDS011;38793;52.690;6.812;2023-08-06T12:47:36;2.40;;;0.85;;
52918;SDS011;38793;52.690;6.812;2023-08-06T12:52:28;1.15;;;0.75;;
52918;SDS011;38793;52.690;6.812;2023-08-06T12:57:19;1.75;;;0.90;;
52918;SDS011;38793;52.690;6.812;2023-08-06T13:02:10;0.88;;;0.60;;
52918;SDS011;38793;52.690;6.812;2023-08-06T13:04:35;1.00;;;0.68;;
52918;SDS011;38793;52.690;6.812;2023-08-06T13:09:26;2.00;;;0.80;;
52918;SDS011;38793;52.690;6.812;2023-08-06T13:14:18;0.90;;;0.65;;
52918;SDS011;38793;52.690;6.812;2023-08-06T13:19:09;1.55;;;0.77;;
52918;SDS011;38793;52.690;6.812;2023-08-06T13:24:06;0.90;;;0.68;;
52918;SDS011;38793;52.690;6.812;2023-08-06T13:26:35;1.95;;;0.70;;
52918;SDS011;38793;52.690;6.812;2023-08-06T13:31:29;2.40;;;1.50;;
52918;SDS011;38793;52.690;6.812;2023-08-06T13:36:22;1.10;;;0.98;;
52918;SDS011;38793;52.690;6.812;2023-08-06T13:41:14;1.40;;;1.00;;
52918;SDS011;38793;52.690;6.812;2023-08-06T13:46:05;2.97;;;1.50;;
52918;SDS011;38793;52.690;6.812;2023-08-06T13:50:57;2.38;;;1.42;;
52918;SDS011;38793;52.690;6.812;2023-08-06T13:58:15;3.75;;;1.05;;
52918;SDS011;38793;52.690;6.812;2023-08-06T14:03:06;1.30;;;0.95;;
52918;SDS011;38793;52.690;6.812;2023-08-06T14:05:33;1.42;;;0.82;;
52918;SDS011;38793;52.690;6.812;2023-08-06T14:10:25;1.52;;;1.00;;
52918;SDS011;38793;52.690;6.812;2023-08-06T14:15:16;3.90;;;1.00;;
52918;SDS011;38793;52.690;6.812;2023-08-06T14:20:07;2.55;;;0.90;;
52918;SDS011;38793;52.690;6.812;2023-08-06T14:22:36;0.80;;;0.60;;
52918;SDS011;38793;52.690;6.812;2023-08-06T14:27:28;1.15;;;0.90;;
52918;SDS011;38793;52.690;6.812;2023-08-06T14:32:19;4.20;;;1.40;;
52918;SDS011;38793;52.690;6.812;2023-08-06T14:34:46;2.75;;;1.80;;
52918;SDS011;38793;52.690;6.812;2023-08-06T14:39:37;3.38;;;1.50;;
52918;SDS011;38793;52.690;6.812;2023-08-06T14:44:29;1.67;;;1.30;;
52918;SDS011;38793;52.690;6.812;2023-08-06T14:49:21;2.97;;;1.70;;
52918;SDS011;38793;52.690;6.812;2023-08-06T14:54:12;2.53;;;1.10;;
52918;SDS011;38793;52.690;6.812;2023-08-06T14:59:03;1.80;;;1.65;;
52918;SDS011;38793;52.690;6.812;2023-08-06T15:03:54;4.72;;;1.67;;
52918;SDS011;38793;52.690;6.812;2023-08-06T15:08:45;3.53;;;1.10;;
52918;SDS011;38793;52.690;6.812;2023-08-06T15:11:13;3.80;;;1.65;;
52918;SDS011;38793;52.690;6.812;2023-08-06T15:13:39;2.70;;;1.33;;
52918;SDS011;38793;52.690;6.812;2023-08-06T15:18:30;2.10;;;1.27;;
52918;SDS011;38793;52.690;6.812;2023-08-06T15:23:22;3.60;;;1.33;;
52918;SDS011;38793;52.690;6.812;2023-08-06T15:28:14;3.03;;;1.63;;
52918;SDS011;38793;52.690;6.812;2023-08-06T15:33:10;3.85;;;0.85;;
52918;SDS011;38793;52.690;6.812;2023-08-06T15:35:36;1.00;;;0.80;;
52918;SDS011;38793;52.690;6.812;2023-08-06T15:40:27;5.00;;;0.80;;
52918;SDS011;38793;52.690;6.812;2023-08-06T15:45:19;1.40;;;0.63;;
52918;SDS011;38793;52.690;6.812;2023-08-06T15:50:10;4.75;;;0.90;;
52918;SDS011;38793;52.690;6.812;2023-08-06T15:55:04;1.55;;;0.70;;
52918;SDS011;38793;52.690;6.812;2023-08-06T15:57:33;0.70;;;0.50;;
52918;SDS011;38793;52.690;6.812;2023-08-06T15:59:59;2.08;;;1.00;;
52918;SDS011;38793;52.690;6.812;2023-08-06T16:04:52;3.63;;;2.88;;
52918;SDS011;38793;52.690;6.812;2023-08-06T16:07:19;4.35;;;3.33;;
52918;SDS011;38793;52.690;6.812;2023-08-06T16:09:45;2.90;;;2.28;;
52918;SDS011;38793;52.690;6.812;2023-08-06T16:12:11;2.75;;;2.55;;
52918;SDS011;38793;52.690;6.812;2023-08-06T16:14:36;5.28;;;3.30;;
52918;SDS011;38793;52.690;6.812;2023-08-06T16:19:27;8.43;;;4.38;;
52918;SDS011;38793;52.690;6.812;2023-08-06T16:21:53;4.88;;;4.47;;
52918;SDS011;38793;52.690;6.812;2023-08-06T16:26:44;4.65;;;4.25;;
52918;SDS011;38793;52.690;6.812;2023-08-06T16:29:10;9.27;;;4.72;;
52918;SDS011;38793;52.690;6.812;2023-08-06T16:31:35;5.13;;;4.63;;
52918;SDS011;38793;52.690;6.812;2023-08-06T16:34:01;4.97;;;4.55;;
52918;SDS011;38793;52.690;6.812;2023-08-06T16:38:52;4.53;;;4.13;;
52918;SDS011;38793;52.690;6.812;2023-08-06T16:41:18;5.45;;;3.47;;
52918;SDS011;38793;52.690;6.812;2023-08-06T16:43:44;5.18;;;4.20;;
52918;SDS011;38793;52.690;6.812;2023-08-06T16:46:10;8.93;;;3.83;;
52918;SDS011;38793;52.690;6.812;2023-08-06T16:48:35;6.18;;;3.42;;
52918;SDS011;38793;52.690;6.812;2023-08-06T16:51:01;4.07;;;3.45;;
52918;SDS011;38793;52.690;6.812;2023-08-06T16:53:27;5.75;;;3.90;;
52918;SDS011;38793;52.690;6.812;2023-08-06T16:55:54;4.10;;;3.17;;
52918;SDS011;38793;52.690;6.812;2023-08-06T16:58:21;3.30;;;2.92;;
52918;SDS011;38793;52.690;6.812;2023-08-06T17:00:47;4.47;;;3.10;;
52918;SDS011;38793;52.690;6.812;2023-08-06T17:03:16;7.13;;;3.85;;
52918;SDS011;38793;52.690;6.812;2023-08-06T17:05:45;3.67;;;3.28;;
52918;SDS011;38793;52.690;6.812;2023-08-06T17:08:11;3.33;;;3.05;;
52918;SDS011;38793;52.690;6.812;2023-08-06T17:10:36;3.72;;;3.03;;
52918;SDS011;38793;52.690;6.812;2023-08-06T17:13:03;4.80;;;2.97;;